Track Никольский Артём

Time Latitude Longitude Accuracy (66% radius in meters) Altitude (meters) Speed (km/hour) Bearing (degrees) Battery (%) GPS flag
09:54:11 60.253162 29.796020 9.6999998092651 79.1 1.3552635908127 257.67001342773 1 delete
09:53:50 60.253215 29.796775 10.699999809265 79.9 3.4280500411987 291.7200012207 1 delete
09:53:39 60.253150 29.797390 11.199999809265 82.5 4.3586678504944 288.35000610352 1 delete
09:53:30 60.253007 29.797930 11.39999961853 82.5 3.4923903942108 273.73999023438 1 delete
09:53:18 60.252962 29.798685 10.89999961853 83.1 4.5115404129028 263.5 1 delete
09:53:12 60.253032 29.799112 10.800000190735 83.3 4.2356491088867 278.17001342773 1 delete
09:53:00 60.252915 29.800012 10.89999961853 81.3 3.7013676166534 280.57998657227 1 delete
09:52:57 60.252890 29.800253 11.300000190735 80.2 4.042628288269 284.54998779297 1 delete
09:52:40 60.252608 29.801095 10.699999809265 68.2 3.9649052619934 307.29998779297 1 delete
09:52:37 60.252533 29.801250 10.800000190735 67.8 4.101306438446 315.76000976562 1 delete
09:52:28 60.252323 29.801760 11.800000190735 66.5 3.4100346565247 247.94000244141 1 delete
09:52:11 60.252538 29.802775 10.5 60.5 2.8206777572632 274.0299987793 1 delete
09:52:08 60.252550 29.802973 9.8999996185303 60.1 4.2850623130798 280.39999389648 1 delete
09:52:04 60.252522 29.803222 10 59.4 2.8870768547058 273.64001464844 1 delete
09:52:00 60.252493 29.803393 9.6999998092651 58.6 2.0274908542633 269.73001098633 1 delete
09:51:55 60.252525 29.803595 10 57.5 3.2690007686615 277.2799987793 1 delete
09:51:45 60.252488 29.804013 8.6999998092651 55.2 2.1170525550842 284.16000366211 1 delete
09:51:40 60.252478 29.804230 8.6999998092651 53.5 1.865353345871 296.48001098633 1 delete
09:51:36 60.252473 29.804413 8.6999998092651 51.8 3.5587894916534 311.9700012207 1 delete
09:51:32 60.252413 29.804553 9.1000003814697 50.6 0.083384998142719 256.42999267578 1 delete
09:51:15 60.252417 29.805148 8.8000001907349 45.7 4.9289798736572 282.79000854492 1 delete
09:51:13 60.252380 29.805322 8.6999998092651 45.9 5.0360422134399 322.82000732422 1 delete
09:51:10 60.252312 29.805553 8.8999996185303 46 4.3787417411804 332.73001098633 1 delete
09:50:53 60.252333 29.805708 10.60000038147 50.9 4.5908074378967 264.0299987793 1 delete
09:50:42 60.252297 29.806368 9.3999996185303 56.4 2.6667759418488 251.55999755859 1 delete
09:50:36 60.252327 29.806573 9.8000001907349 59.7 2.8994302749634 244.89999389648 1 delete
09:50:28 60.252428 29.807270 10.300000190735 64.2 6.7516112327576 254.08000183105 1 delete
09:50:22 60.252688 29.807863 10.89999961853 67.2 8.9108715057373 208.58999633789 1 delete
09:50:13 60.253027 29.808208 9.6999998092651 76.2 2.8747236728668 200.27000427246 1 delete
09:49:07 60.253947 29.807672 11.60000038147 56.1 5.7551093101501 190.36000061035 1 delete
09:48:58 60.254337 29.807530 11.39999961853 55.3 4.8579483032227 192.69000244141 1 delete
09:48:52 60.254568 29.807427 11.60000038147 56.7 4.6052198410034 213.39999389648 1 delete
09:48:40 60.254940 29.807962 11.199999809265 57.1 4.8260354995728 224.44999694824 1 delete
09:48:34 60.255152 29.808230 11.39999961853 60.1 5.0720729827881 200.83000183105 1 delete
09:48:25 60.255553 29.808452 11.60000038147 65.8 5.1925177574158 170.44999694824 1 delete
09:48:19 60.255803 29.808617 12.10000038147 68.3 4.9897170066833 141.88999938965 1 delete
09:48:09 60.256157 29.808232 11.10000038147 70.4 4.9243474006653 172.28999328613 1 delete
09:47:56 60.256587 29.808812 11.199999809265 75.6 5.6073837280273 307.33999633789 1 delete
09:47:54 60.256572 29.809020 11 76.9 6.0551919937134 314.23999023438 1 delete
09:47:48 60.256395 29.809540 11.39999961853 81.1 4.9197149276733 328.91000366211 1 delete
09:47:34 60.256372 29.810568 10.10000038147 92.2 3.4450359344482 263.39001464844 1 delete
09:47:30 60.256417 29.810743 10 94.6 2.9442110061646 173.86999511719 1 delete
09:47:26 60.256505 29.810778 10.39999961853 96.6 2.4660341739655 160.38000488281 1 delete
09:47:06 60.256387 29.810842 10.699999809265 107.2 2.30544090271 331.91000366211 1 delete
09:46:49 60.256667 29.811732 10.60000038147 112.2 3.3045165538788 297.82998657227 1 delete
09:46:45 60.256642 29.811937 10.800000190735 113.7 2.3749282360077 285.13000488281 1 delete
09:46:35 60.256718 29.812478 10.5 117.3 2.3430156707764 186.47999572754 1 delete
09:46:19 60.256975 29.812658 11.89999961853 117.9 3.9211537837982 201.05999755859 1 delete
09:46:12 60.257315 29.812877 13.60000038147 117.9 5.1183977127075 193.50999450684 1 delete
09:46:03 60.257765 29.812795 11.60000038147 120.5 2.7429547309875 164.4700012207 1 delete